Oakvale, West Virginia
Current Conditions -  °F | °C
As of 4:17 AM on Wednesday 22 Oct 2014 (Local Time) from KBLF Reporting Station
Overcast Overcast  
Wind Chill: 39°   Ceiling: 900
Heat Index: 42°   Visibility: 10mi
Dew Point: 38°   Wind: 5mph
Humidity: 85%   Direction: 310°NW
Pressure: 30.05"   Gusts: NA
Location:  37.33°N, 80.96°W
Report Text: KBLF 220817Z AUTO 31004KT 10SM BKN009 OVC018 06/03 A3005 RMK AO2 CIG 008V013 T00560033
Loading
Personal Weather Stations






























Interactive Weather Map
Tropical Storm Tracking
New forecast layout! Learn more

10-Day Weather Forecast

Advertisements
Track Severe Weather on mobile